sensor_id;sensor_type;location;lat;lon;timestamp;pressure;altitude;pressure_sealevel;temperature;humidity
19831;BME280;10076;52.008;4.708;2022-09-25T00:01:19;101699.72;;;13.97;100.00
19831;BME280;10076;52.008;4.708;2022-09-25T00:03:45;101705.53;;;14.02;100.00
19831;BME280;10076;52.008;4.708;2022-09-25T00:06:14;101705.66;;;14.00;100.00
19831;BME280;10076;52.008;4.708;2022-09-25T00:08:39;101702.16;;;13.87;100.00
19831;BME280;10076;52.008;4.708;2022-09-25T00:11:10;101715.00;;;13.93;100.00
19831;BME280;10076;52.008;4.708;2022-09-25T00:13:36;101714.25;;;13.91;100.00
19831;BME280;10076;52.008;4.708;2022-09-25T00:16:02;101717.56;;;13.70;100.00
19831;BME280;10076;52.008;4.708;2022-09-25T00:18:28;101718.00;;;13.77;100.00
19831;BME280;10076;52.008;4.708;2022-09-25T00:21:14;101724.13;;;13.77;100.00
19831;BME280;10076;52.008;4.708;2022-09-25T00:23:41;101723.31;;;13.77;100.00
19831;BME280;10076;52.008;4.708;2022-09-25T00:26:08;101721.63;;;13.63;100.00
19831;BME280;10076;52.008;4.708;2022-09-25T00:28:34;101717.66;;;13.56;100.00
19831;BME280;10076;52.008;4.708;2022-09-25T00:31:01;101722.03;;;13.57;100.00
19831;BME280;10076;52.008;4.708;2022-09-25T00:33:27;101722.34;;;13.65;100.00
19831;BME280;10076;52.008;4.708;2022-09-25T00:35:52;101719.69;;;13.65;100.00
19831;BME280;10076;52.008;4.708;2022-09-25T00:38:18;101721.47;;;13.77;100.00
19831;BME280;10076;52.008;4.708;2022-09-25T00:40:43;101723.81;;;13.69;100.00
19831;BME280;10076;52.008;4.708;2022-09-25T00:43:13;101723.81;;;13.57;100.00
19831;BME280;10076;52.008;4.708;2022-09-25T00:45:39;101730.53;;;13.62;100.00
19831;BME280;10076;52.008;4.708;2022-09-25T00:48:09;101725.84;;;13.78;100.00
19831;BME280;10076;52.008;4.708;2022-09-25T00:50:44;101720.44;;;13.67;100.00
19831;BME280;10076;52.008;4.708;2022-09-25T00:53:19;101722.34;;;13.53;100.00
19831;BME280;10076;52.008;4.708;2022-09-25T00:55:45;101724.53;;;13.46;100.00
19831;BME280;10076;52.008;4.708;2022-09-25T00:58:12;101711.19;;;13.48;100.00
19831;BME280;10076;52.008;4.708;2022-09-25T01:00:40;101718.28;;;13.47;100.00
19831;BME280;10076;52.008;4.708;2022-09-25T01:03:06;101722.31;;;13.40;100.00
19831;BME280;10076;52.008;4.708;2022-09-25T01:05:36;101723.72;;;13.46;100.00
19831;BME280;10076;52.008;4.708;2022-09-25T01:08:04;101719.78;;;13.51;100.00
19831;BME280;10076;52.008;4.708;2022-09-25T01:10:31;101721.47;;;13.52;100.00
19831;BME280;10076;52.008;4.708;2022-09-25T01:12:58;101719.34;;;13.45;100.00
19831;BME280;10076;52.008;4.708;2022-09-25T01:15:37;101712.34;;;13.44;100.00
19831;BME280;10076;52.008;4.708;2022-09-25T01:23:45;101711.38;;;13.45;100.00
19831;BME280;10076;52.008;4.708;2022-09-25T01:29:29;101706.41;;;13.53;100.00
19831;BME280;10076;52.008;4.708;2022-09-25T01:35:13;101712.03;;;13.36;100.00
19831;BME280;10076;52.008;4.708;2022-09-25T01:37:55;101723.81;;;13.44;100.00
19831;BME280;10076;52.008;4.708;2022-09-25T01:43:39;101721.88;;;13.46;100.00
19831;BME280;10076;52.008;4.708;2022-09-25T01:46:17;101718.81;;;13.52;100.00
19831;BME280;10076;52.008;4.708;2022-09-25T01:48:48;101710.31;;;13.47;100.00
19831;BME280;10076;52.008;4.708;2022-09-25T01:51:23;101708.72;;;13.45;100.00
19831;BME280;10076;52.008;4.708;2022-09-25T01:53:53;101708.50;;;13.35;100.00
19831;BME280;10076;52.008;4.708;2022-09-25T01:56:23;101722.13;;;13.31;100.00
19831;BME280;10076;52.008;4.708;2022-09-25T01:58:58;101727.00;;;13.37;100.00
19831;BME280;10076;52.008;4.708;2022-09-25T02:01:28;101721.34;;;13.29;100.00
19831;BME280;10076;52.008;4.708;2022-09-25T02:04:04;101718.28;;;13.35;100.00
19831;BME280;10076;52.008;4.708;2022-09-25T02:06:36;101720.81;;;13.36;100.00
19831;BME280;10076;52.008;4.708;2022-09-25T02:09:10;101725.28;;;13.36;100.00
19831;BME280;10076;52.008;4.708;2022-09-25T02:11:41;101719.03;;;13.37;100.00
19831;BME280;10076;52.008;4.708;2022-09-25T02:14:12;101711.38;;;13.32;100.00
19831;BME280;10076;52.008;4.708;2022-09-25T02:16:41;101713.81;;;13.35;100.00
19831;BME280;10076;52.008;4.708;2022-09-25T02:19:09;101711.91;;;13.37;100.00
19831;BME280;10076;52.008;4.708;2022-09-25T02:22:20;101723.06;;;13.42;100.00
19831;BME280;10076;52.008;4.708;2022-09-25T02:25:01;101716.59;;;13.46;100.00
19831;BME280;10076;52.008;4.708;2022-09-25T02:27:28;101720.50;;;13.28;100.00
19831;BME280;10076;52.008;4.708;2022-09-25T02:29:54;101717.44;;;13.34;100.00
19831;BME280;10076;52.008;4.708;2022-09-25T02:32:28;101713.50;;;13.27;100.00
19831;BME280;10076;52.008;4.708;2022-09-25T02:34:54;101711.38;;;13.32;100.00
19831;BME280;10076;52.008;4.708;2022-09-25T02:37:19;101709.59;;;13.45;100.00
19831;BME280;10076;52.008;4.708;2022-09-25T02:39:47;101711.09;;;13.49;100.00
19831;BME280;10076;52.008;4.708;2022-09-25T02:42:42;101714.56;;;13.50;100.00
19831;BME280;10076;52.008;4.708;2022-09-25T02:48:20;101718.72;;;13.41;100.00
19831;BME280;10076;52.008;4.708;2022-09-25T02:51:10;101719.94;;;13.23;100.00
19831;BME280;10076;52.008;4.708;2022-09-25T02:53:42;101716.44;;;13.11;100.00
19831;BME280;10076;52.008;4.708;2022-09-25T02:56:36;101713.22;;;13.06;100.00
19831;BME280;10076;52.008;4.708;2022-09-25T02:59:08;101720.59;;;13.14;100.00
19831;BME280;10076;52.008;4.708;2022-09-25T03:01:37;101724.66;;;13.32;100.00
19831;BME280;10076;52.008;4.708;2022-09-25T03:04:06;101720.81;;;13.24;100.00
19831;BME280;10076;52.008;4.708;2022-09-25T03:06:33;101724.69;;;13.57;100.00
19831;BME280;10076;52.008;4.708;2022-09-25T03:08:59;101727.94;;;13.48;100.00
19831;BME280;10076;52.008;4.708;2022-09-25T03:11:26;101728.28;;;13.56;100.00
19831;BME280;10076;52.008;4.708;2022-09-25T03:13:55;101719.78;;;13.64;100.00
19831;BME280;10076;52.008;4.708;2022-09-25T03:18:55;101715.53;;;13.61;100.00
19831;BME280;10076;52.008;4.708;2022-09-25T03:21:20;101725.09;;;13.64;100.00
19831;BME280;10076;52.008;4.708;2022-09-25T03:23:45;101727.00;;;13.62;100.00
19831;BME280;10076;52.008;4.708;2022-09-25T03:26:11;101722.56;;;13.62;100.00
19831;BME280;10076;52.008;4.708;2022-09-25T03:28:37;101717.25;;;13.62;100.00
19831;BME280;10076;52.008;4.708;2022-09-25T03:31:07;101712.69;;;13.77;100.00
19831;BME280;10076;52.008;4.708;2022-09-25T03:33:39;101720.41;;;13.79;100.00
19831;BME280;10076;52.008;4.708;2022-09-25T03:36:16;101719.16;;;13.85;100.00
19831;BME280;10076;52.008;4.708;2022-09-25T03:38:43;101715.66;;;13.60;100.00
19831;BME280;10076;52.008;4.708;2022-09-25T03:41:12;101709.59;;;13.58;100.00
19831;BME280;10076;52.008;4.708;2022-09-25T03:43:39;101707.69;;;13.47;100.00
19831;BME280;10076;52.008;4.708;2022-09-25T03:46:07;101697.41;;;13.55;100.00
19831;BME280;10076;52.008;4.708;2022-09-25T03:48:33;101702.16;;;13.75;100.00
19831;BME280;10076;52.008;4.708;2022-09-25T03:50:59;101697.25;;;13.94;100.00
19831;BME280;10076;52.008;4.708;2022-09-25T03:53:25;101698.91;;;14.07;100.00
19831;BME280;10076;52.008;4.708;2022-09-25T03:55:52;101703.19;;;13.97;100.00
19831;BME280;10076;52.008;4.708;2022-09-25T03:58:18;101703.19;;;14.10;100.00
19831;BME280;10076;52.008;4.708;2022-09-25T04:00:45;101703.00;;;14.13;100.00
19831;BME280;10076;52.008;4.708;2022-09-25T04:03:11;101698.53;;;14.01;100.00
19831;BME280;10076;52.008;4.708;2022-09-25T04:05:36;101702.69;;;13.80;100.00
19831;BME280;10076;52.008;4.708;2022-09-25T04:08:02;101702.69;;;13.68;100.00
19831;BME280;10076;52.008;4.708;2022-09-25T04:10:28;101703.22;;;13.73;100.00
19831;BME280;10076;52.008;4.708;2022-09-25T04:12:53;101694.50;;;13.58;100.00
19831;BME280;10076;52.008;4.708;2022-09-25T04:15:23;101702.47;;;13.58;100.00
19831;BME280;10076;52.008;4.708;2022-09-25T04:17:49;101691.22;;;13.42;100.00
19831;BME280;10076;52.008;4.708;2022-09-25T04:20:15;101681.75;;;13.26;100.00
19831;BME280;10076;52.008;4.708;2022-09-25T04:22:40;101695.31;;;13.09;100.00
19831;BME280;10076;52.008;4.708;2022-09-25T04:25:06;101689.16;;;12.96;100.00
19831;BME280;10076;52.008;4.708;2022-09-25T04:27:32;101688.22;;;13.22;100.00
19831;BME280;10076;52.008;4.708;2022-09-25T04:29:57;101679.22;;;13.24;100.00
19831;BME280;10076;52.008;4.708;2022-09-25T04:32:23;101683.69;;;13.36;100.00
19831;BME280;10076;52.008;4.708;2022-09-25T04:35:07;101682.44;;;13.42;100.00
19831;BME280;10076;52.008;4.708;2022-09-25T04:37:32;101684.31;;;13.52;100.00
19831;BME280;10076;52.008;4.708;2022-09-25T04:39:58;101681.38;;;13.44;100.00
19831;BME280;10076;52.008;4.708;2022-09-25T04:42:24;101681.91;;;13.49;100.00
19831;BME280;10076;52.008;4.708;2022-09-25T04:44:54;101687.97;;;13.51;100.00
19831;BME280;10076;52.008;4.708;2022-09-25T04:47:23;101687.19;;;13.24;100.00
19831;BME280;10076;52.008;4.708;2022-09-25T04:49:49;101681.28;;;12.95;100.00
19831;BME280;10076;52.008;4.708;2022-09-25T04:52:16;101684.53;;;12.86;100.00
19831;BME280;10076;52.008;4.708;2022-09-25T04:54:42;101677.09;;;12.78;100.00
19831;BME280;10076;52.008;4.708;2022-09-25T04:57:18;101681.53;;;12.78;100.00
19831;BME280;10076;52.008;4.708;2022-09-25T04:59:44;101683.38;;;12.63;100.00
19831;BME280;10076;52.008;4.708;2022-09-25T05:02:11;101688.91;;;12.87;100.00
19831;BME280;10076;52.008;4.708;2022-09-25T05:04:37;101684.50;;;13.00;100.00
19831;BME280;10076;52.008;4.708;2022-09-25T05:07:03;101686.72;;;13.06;100.00
19831;BME280;10076;52.008;4.708;2022-09-25T05:09:29;101688.50;;;12.93;100.00
19831;BME280;10076;52.008;4.708;2022-09-25T05:11:54;101685.63;;;12.96;100.00
19831;BME280;10076;52.008;4.708;2022-09-25T05:14:20;101678.69;;;12.81;100.00
19831;BME280;10076;52.008;4.708;2022-09-25T05:16:45;101692.38;;;12.61;100.00
19831;BME280;10076;52.008;4.708;2022-09-25T05:19:11;101685.75;;;12.68;100.00
19831;BME280;10076;52.008;4.708;2022-09-25T05:21:36;101686.63;;;12.81;100.00
19831;BME280;10076;52.008;4.708;2022-09-25T05:24:02;101690.50;;;12.89;100.00
19831;BME280;10076;52.008;4.708;2022-09-25T05:26:27;101690.66;;;12.86;100.00
19831;BME280;10076;52.008;4.708;2022-09-25T05:28:54;101682.81;;;12.85;100.00
19831;BME280;10076;52.008;4.708;2022-09-25T05:31:19;101686.03;;;12.90;100.00
19831;BME280;10076;52.008;4.708;2022-09-25T05:33:45;101680.97;;;12.87;100.00
19831;BME280;10076;52.008;4.708;2022-09-25T05:36:11;101685.56;;;12.83;100.00
19831;BME280;10076;52.008;4.708;2022-09-25T05:38:38;101675.78;;;12.71;100.00
19831;BME280;10076;52.008;4.708;2022-09-25T05:41:08;101682.16;;;12.81;100.00
19831;BME280;10076;52.008;4.708;2022-09-25T05:43:37;101685.09;;;12.91;100.00
19831;BME280;10076;52.008;4.708;2022-09-25T05:46:04;101678.31;;;12.87;100.00
19831;BME280;10076;52.008;4.708;2022-09-25T05:48:30;101675.56;;;12.74;100.00
19831;BME280;10076;52.008;4.708;2022-09-25T05:50:56;101684.38;;;13.01;100.00
19831;BME280;10076;52.008;4.708;2022-09-25T05:53:22;101676.53;;;13.00;100.00
19831;BME280;10076;52.008;4.708;2022-09-25T05:55:49;101675.69;;;13.11;100.00
19831;BME280;10076;52.008;4.708;2022-09-25T05:58:14;101676.84;;;13.08;100.00
19831;BME280;10076;52.008;4.708;2022-09-25T06:00:40;101679.63;;;13.18;100.00
19831;BME280;10076;52.008;4.708;2022-09-25T06:03:06;101680.72;;;13.28;100.00
19831;BME280;10076;52.008;4.708;2022-09-25T06:05:32;101685.16;;;13.40;100.00
19831;BME280;10076;52.008;4.708;2022-09-25T06:07:57;101678.59;;;13.58;100.00
19831;BME280;10076;52.008;4.708;2022-09-25T06:10:22;101691.34;;;13.66;100.00
19831;BME280;10076;52.008;4.708;2022-09-25T06:12:50;101682.63;;;13.64;100.00
19831;BME280;10076;52.008;4.708;2022-09-25T06:15:16;101688.34;;;13.70;100.00
19831;BME280;10076;52.008;4.708;2022-09-25T06:17:42;101687.50;;;13.82;100.00
19831;BME280;10076;52.008;4.708;2022-09-25T06:20:07;101689.81;;;13.99;100.00
19831;BME280;10076;52.008;4.708;2022-09-25T06:22:33;101695.44;;;14.07;100.00
19831;BME280;10076;52.008;4.708;2022-09-25T06:24:58;101692.97;;;14.04;100.00
19831;BME280;10076;52.008;4.708;2022-09-25T06:27:23;101695.97;;;14.12;100.00
19831;BME280;10076;52.008;4.708;2022-09-25T06:29:49;101700.41;;;14.24;100.00
19831;BME280;10076;52.008;4.708;2022-09-25T06:32:14;101708.41;;;14.47;100.00
19831;BME280;10076;52.008;4.708;2022-09-25T06:34:41;101705.94;;;14.56;100.00
19831;BME280;10076;52.008;4.708;2022-09-25T06:37:06;101703.19;;;14.58;100.00
19831;BME280;10076;52.008;4.708;2022-09-25T06:39:31;101706.16;;;14.77;100.00
19831;BME280;10076;52.008;4.708;2022-09-25T06:41:58;101705.03;;;14.92;100.00
19831;BME280;10076;52.008;4.708;2022-09-25T06:44:23;101700.75;;;15.13;100.00
19831;BME280;10076;52.008;4.708;2022-09-25T06:46:49;101694.44;;;15.37;100.00
19831;BME280;10076;52.008;4.708;2022-09-25T06:49:18;101691.59;;;15.62;100.00
19831;BME280;10076;52.008;4.708;2022-09-25T06:51:44;101690.13;;;15.36;100.00
19831;BME280;10076;52.008;4.708;2022-09-25T06:54:09;101694.09;;;15.41;100.00
19831;BME280;10076;52.008;4.708;2022-09-25T06:56:34;101697.00;;;15.27;100.00
19831;BME280;10076;52.008;4.708;2022-09-25T06:59:00;101696.38;;;15.24;100.00
19831;BME280;10076;52.008;4.708;2022-09-25T07:01:25;101689.13;;;15.37;100.00
19831;BME280;10076;52.008;4.708;2022-09-25T07:03:50;101698.56;;;15.30;100.00
19831;BME280;10076;52.008;4.708;2022-09-25T07:06:19;101699.78;;;15.37;100.00
19831;BME280;10076;52.008;4.708;2022-09-25T07:08:46;101704.72;;;15.30;100.00
19831;BME280;10076;52.008;4.708;2022-09-25T07:11:14;101695.56;;;15.45;100.00
19831;BME280;10076;52.008;4.708;2022-09-25T07:13:40;101697.50;;;15.43;100.00
19831;BME280;10076;52.008;4.708;2022-09-25T07:16:11;101700.31;;;15.53;100.00
19831;BME280;10076;52.008;4.708;2022-09-25T07:18:36;101707.09;;;15.68;100.00
19831;BME280;10076;52.008;4.708;2022-09-25T07:21:08;101701.91;;;15.77;100.00
19831;BME280;10076;52.008;4.708;2022-09-25T07:23:34;101709.28;;;15.85;100.00
19831;BME280;10076;52.008;4.708;2022-09-25T07:26:15;101697.66;;;16.07;100.00
19831;BME280;10076;52.008;4.708;2022-09-25T07:28:45;101699.97;;;16.23;100.00
19831;BME280;10076;52.008;4.708;2022-09-25T07:31:16;101699.72;;;16.26;100.00
19831;BME280;10076;52.008;4.708;2022-09-25T07:33:42;101699.84;;;16.35;100.00
19831;BME280;10076;52.008;4.708;2022-09-25T07:36:07;101693.84;;;16.64;100.00
19831;BME280;10076;52.008;4.708;2022-09-25T07:38:33;101695.50;;;16.76;100.00
19831;BME280;10076;52.008;4.708;2022-09-25T07:41:01;101688.25;;;16.99;100.00
19831;BME280;10076;52.008;4.708;2022-09-25T07:43:26;101697.06;;;17.10;100.00
19831;BME280;10076;52.008;4.708;2022-09-25T07:45:51;101699.28;;;17.05;100.00
19831;BME280;10076;52.008;4.708;2022-09-25T07:48:19;101704.69;;;17.15;100.00
19831;BME280;10076;52.008;4.708;2022-09-25T07:50:48;101694.78;;;17.06;100.00
19831;BME280;10076;52.008;4.708;2022-09-25T07:53:16;101700.31;;;17.14;100.00
19831;BME280;10076;52.008;4.708;2022-09-25T07:55:45;101696.53;;;17.16;100.00
19831;BME280;10076;52.008;4.708;2022-09-25T07:58:11;101700.88;;;17.28;100.00
19831;BME280;10076;52.008;4.708;2022-09-25T08:00:37;101693.78;;;17.38;100.00
19831;BME280;10076;52.008;4.708;2022-09-25T08:03:05;101700.94;;;17.58;100.00
19831;BME280;10076;52.008;4.708;2022-09-25T08:05:30;101698.94;;;17.80;100.00
19831;BME280;10076;52.008;4.708;2022-09-25T08:07:56;101695.59;;;18.08;100.00
19831;BME280;10076;52.008;4.708;2022-09-25T08:10:21;101698.75;;;18.22;100.00
19831;BME280;10076;52.008;4.708;2022-09-25T08:12:46;101701.50;;;18.51;100.00
19831;BME280;10076;52.008;4.708;2022-09-25T08:15:12;101699.16;;;18.85;100.00
19831;BME280;10076;52.008;4.708;2022-09-25T08:17:40;101696.38;;;19.15;100.00
19831;BME280;10076;52.008;4.708;2022-09-25T08:20:07;101695.50;;;19.34;100.00
19831;BME280;10076;52.008;4.708;2022-09-25T08:22:32;101687.88;;;19.48;100.00
19831;BME280;10076;52.008;4.708;2022-09-25T08:24:58;101688.66;;;19.67;100.00
19831;BME280;10076;52.008;4.708;2022-09-25T08:27:27;101692.84;;;19.89;100.00
19831;BME280;10076;52.008;4.708;2022-09-25T08:29:53;101692.84;;;19.79;100.00
19831;BME280;10076;52.008;4.708;2022-09-25T08:32:18;101694.72;;;19.69;100.00
19831;BME280;10076;52.008;4.708;2022-09-25T08:34:43;101689.50;;;19.77;100.00
19831;BME280;10076;52.008;4.708;2022-09-25T08:37:09;101696.50;;;19.88;100.00
19831;BME280;10076;52.008;4.708;2022-09-25T08:39:34;101691.13;;;19.97;100.00
19831;BME280;10076;52.008;4.708;2022-09-25T08:42:00;101689.91;;;20.18;100.00
19831;BME280;10076;52.008;4.708;2022-09-25T08:47:05;101688.53;;;20.41;100.00
19831;BME280;10076;52.008;4.708;2022-09-25T08:50:04;101688.31;;;20.79;100.00
19831;BME280;10076;52.008;4.708;2022-09-25T08:52:31;101688.47;;;20.95;100.00
19831;BME280;10076;52.008;4.708;2022-09-25T08:54:57;101693.75;;;21.22;100.00
19831;BME280;10076;52.008;4.708;2022-09-25T08:57:32;101685.88;;;21.46;100.00
19831;BME280;10076;52.008;4.708;2022-09-25T09:00:05;101688.78;;;22.28;100.00
19831;BME280;10076;52.008;4.708;2022-09-25T09:02:44;101684.53;;;24.02;100.00
19831;BME280;10076;52.008;4.708;2022-09-25T09:05:25;101692.28;;;25.63;100.00
19831;BME280;10076;52.008;4.708;2022-09-25T09:07:58;101696.63;;;25.86;100.00
19831;BME280;10076;52.008;4.708;2022-09-25T09:10:43;101692.16;;;26.86;100.00
19831;BME280;10076;52.008;4.708;2022-09-25T09:13:32;101685.25;;;27.67;100.00
19831;BME280;10076;52.008;4.708;2022-09-25T09:16:07;101694.16;;;29.67;91.52
19831;BME280;10076;52.008;4.708;2022-09-25T09:18:38;101696.59;;;31.69;71.97
19831;BME280;10076;52.008;4.708;2022-09-25T09:23:58;101690.25;;;31.20;62.83
19831;BME280;10076;52.008;4.708;2022-09-25T09:45:49;101688.97;;;34.00;53.71
19831;BME280;10076;52.008;4.708;2022-09-25T09:48:28;101700.28;;;35.66;48.97
19831;BME280;10076;52.008;4.708;2022-09-25T09:51:00;101700.88;;;36.60;47.07
19831;BME280;10076;52.008;4.708;2022-09-25T09:56:28;101696.91;;;36.51;43.77
19831;BME280;10076;52.008;4.708;2022-09-25T09:58:58;101690.00;;;34.84;45.99
19831;BME280;10076;52.008;4.708;2022-09-25T10:01:28;101679.81;;;33.72;50.45
19831;BME280;10076;52.008;4.708;2022-09-25T10:04:07;101676.22;;;31.71;53.86
19831;BME280;10076;52.008;4.708;2022-09-25T10:06:37;101675.06;;;29.86;58.34
19831;BME280;10076;52.008;4.708;2022-09-25T10:09:03;101671.56;;;28.55;63.47
19831;BME280;10076;52.008;4.708;2022-09-25T10:11:30;101661.47;;;27.21;73.31
19831;BME280;10076;52.008;4.708;2022-09-25T10:13:57;101666.19;;;26.56;79.13
19831;BME280;10076;52.008;4.708;2022-09-25T10:16:26;101667.81;;;26.92;80.71
19831;BME280;10076;52.008;4.708;2022-09-25T10:19:14;101660.94;;;28.73;72.96
19831;BME280;10076;52.008;4.708;2022-09-25T10:21:48;101667.00;;;32.26;58.55
19831;BME280;10076;52.008;4.708;2022-09-25T10:27:39;101669.03;;;36.04;41.67
19831;BME280;10076;52.008;4.708;2022-09-25T10:32:54;101672.69;;;35.44;39.96
19831;BME280;10076;52.008;4.708;2022-09-25T10:35:25;101655.00;;;33.44;44.45
19831;BME280;10076;52.008;4.708;2022-09-25T10:37:53;101654.41;;;31.65;50.60
19831;BME280;10076;52.008;4.708;2022-09-25T10:40:25;101652.66;;;29.13;55.23
19831;BME280;10076;52.008;4.708;2022-09-25T10:43:03;101645.63;;;27.72;68.60
19831;BME280;10076;52.008;4.708;2022-09-25T10:45:31;101642.94;;;27.03;70.43
19831;BME280;10076;52.008;4.708;2022-09-25T10:47:57;101642.91;;;28.59;67.63
19831;BME280;10076;52.008;4.708;2022-09-25T10:50:41;101652.59;;;31.77;54.31
19831;BME280;10076;52.008;4.708;2022-09-25T10:53:23;101658.69;;;35.13;45.70
19831;BME280;10076;52.008;4.708;2022-09-25T10:55:54;101644.56;;;35.70;40.95
19831;BME280;10076;52.008;4.708;2022-09-25T10:58:31;101652.63;;;34.16;45.57
19831;BME280;10076;52.008;4.708;2022-09-25T11:01:00;101650.00;;;35.32;45.00
19831;BME280;10076;52.008;4.708;2022-09-25T11:03:31;101644.47;;;36.62;43.83
19831;BME280;10076;52.008;4.708;2022-09-25T11:06:04;101636.47;;;34.31;41.95
19831;BME280;10076;52.008;4.708;2022-09-25T11:08:37;101634.91;;;31.79;48.38
19831;BME280;10076;52.008;4.708;2022-09-25T11:11:04;101625.63;;;29.96;54.80
19831;BME280;10076;52.008;4.708;2022-09-25T11:16:07;101627.94;;;28.23;64.73
19831;BME280;10076;52.008;4.708;2022-09-25T11:18:46;101620.13;;;28.07;67.99
19831;BME280;10076;52.008;4.708;2022-09-25T11:21:22;101616.47;;;28.27;63.64
19831;BME280;10076;52.008;4.708;2022-09-25T11:24:22;101609.53;;;27.78;60.94
19831;BME280;10076;52.008;4.708;2022-09-25T11:29:48;101615.88;;;30.25;55.07
19831;BME280;10076;52.008;4.708;2022-09-25T11:32:21;101613.88;;;30.02;57.52
19831;BME280;10076;52.008;4.708;2022-09-25T11:41:15;101593.91;;;31.61;52.06
19831;BME280;10076;52.008;4.708;2022-09-25T11:49:31;101607.00;;;36.61;38.51
19831;BME280;10076;52.008;4.708;2022-09-25T12:00:26;101604.06;;;39.13;32.96
19831;BME280;10076;52.008;4.708;2022-09-25T12:03:59;101596.56;;;36.89;34.38
19831;BME280;10076;52.008;4.708;2022-09-25T12:09:25;101584.34;;;35.90;34.66
19831;BME280;10076;52.008;4.708;2022-09-25T12:20:49;101588.13;;;40.71;30.96
19831;BME280;10076;52.008;4.708;2022-09-25T12:23:28;101583.06;;;42.15;29.32
19831;BME280;10076;52.008;4.708;2022-09-25T12:26:19;101576.69;;;43.24;28.83
19831;BME280;10076;52.008;4.708;2022-09-25T12:32:05;101556.50;;;40.19;29.81
19831;BME280;10076;52.008;4.708;2022-09-25T12:40:23;101543.59;;;33.50;39.31
19831;BME280;10076;52.008;4.708;2022-09-25T12:42:56;101539.50;;;32.14;42.20
19831;BME280;10076;52.008;4.708;2022-09-25T12:50:41;101524.19;;;28.06;55.44
19831;BME280;10076;52.008;4.708;2022-09-25T12:53:21;101513.19;;;27.07;66.42
19831;BME280;10076;52.008;4.708;2022-09-25T12:55:53;101523.94;;;26.52;69.74
19831;BME280;10076;52.008;4.708;2022-09-25T13:01:24;101532.56;;;25.71;91.06
19831;BME280;10076;52.008;4.708;2022-09-25T13:06:48;101530.59;;;27.46;80.16
19831;BME280;10076;52.008;4.708;2022-09-25T13:12:02;101532.00;;;25.61;91.28
19831;BME280;10076;52.008;4.708;2022-09-25T13:14:38;101527.19;;;26.06;97.10
19831;BME280;10076;52.008;4.708;2022-09-25T13:17:10;101522.03;;;28.62;78.61
19831;BME280;10076;52.008;4.708;2022-09-25T13:19:36;101524.09;;;28.40;76.70
19831;BME280;10076;52.008;4.708;2022-09-25T13:22:11;101525.22;;;27.59;79.75
19831;BME280;10076;52.008;4.708;2022-09-25T13:24:42;101520.16;;;26.67;85.81
19831;BME280;10076;52.008;4.708;2022-09-25T13:27:14;101518.03;;;26.07;92.22
19831;BME280;10076;52.008;4.708;2022-09-25T13:29:40;101517.31;;;25.98;91.40
19831;BME280;10076;52.008;4.708;2022-09-25T13:32:14;101519.31;;;25.47;94.71
19831;BME280;10076;52.008;4.708;2022-09-25T13:34:41;101504.75;;;25.19;96.60
19831;BME280;10076;52.008;4.708;2022-09-25T13:37:09;101504.81;;;24.60;100.00
19831;BME280;10076;52.008;4.708;2022-09-25T13:39:41;101502.34;;;24.28;100.00
19831;BME280;10076;52.008;4.708;2022-09-25T13:42:36;101499.34;;;23.93;100.00
19831;BME280;10076;52.008;4.708;2022-09-25T13:45:29;101500.16;;;23.63;100.00
19831;BME280;10076;52.008;4.708;2022-09-25T13:48:01;101497.72;;;23.38;100.00
19831;BME280;10076;52.008;4.708;2022-09-25T13:50:28;101497.56;;;23.39;100.00
19831;BME280;10076;52.008;4.708;2022-09-25T14:03:37;101493.00;;;29.77;66.52
19831;BME280;10076;52.008;4.708;2022-09-25T14:06:10;101481.31;;;29.70;63.98
19831;BME280;10076;52.008;4.708;2022-09-25T14:08:39;101487.06;;;29.49;60.62
19831;BME280;10076;52.008;4.708;2022-09-25T14:11:15;101486.81;;;28.08;66.88
19831;BME280;10076;52.008;4.708;2022-09-25T14:13:42;101481.94;;;27.91;68.72
19831;BME280;10076;52.008;4.708;2022-09-25T14:16:27;101476.97;;;27.54;66.95
19831;BME280;10076;52.008;4.708;2022-09-25T14:18:56;101473.25;;;26.67;67.72
19831;BME280;10076;52.008;4.708;2022-09-25T14:21:22;101468.53;;;26.13;73.50
19831;BME280;10076;52.008;4.708;2022-09-25T14:23:50;101459.91;;;26.65;72.38
19831;BME280;10076;52.008;4.708;2022-09-25T14:26:25;101464.94;;;28.23;67.96
19831;BME280;10076;52.008;4.708;2022-09-25T14:28:53;101472.63;;;31.27;54.88
19831;BME280;10076;52.008;4.708;2022-09-25T14:45:06;101450.88;;;28.13;57.12
19831;BME280;10076;52.008;4.708;2022-09-25T14:47:38;101452.50;;;27.48;61.86
19831;BME280;10076;52.008;4.708;2022-09-25T14:50:21;101448.75;;;26.81;66.33
19831;BME280;10076;52.008;4.708;2022-09-25T14:52:53;101447.75;;;25.78;71.72
19831;BME280;10076;52.008;4.708;2022-09-25T14:55:20;101441.47;;;25.13;76.90
19831;BME280;10076;52.008;4.708;2022-09-25T14:57:49;101442.03;;;24.58;82.97
19831;BME280;10076;52.008;4.708;2022-09-25T15:00:18;101440.31;;;24.42;88.33
19831;BME280;10076;52.008;4.708;2022-09-25T15:02:48;101435.22;;;24.03;89.44
19831;BME280;10076;52.008;4.708;2022-09-25T15:05:28;101442.28;;;23.81;92.18
19831;BME280;10076;52.008;4.708;2022-09-25T15:07:56;101436.09;;;23.65;96.79
19831;BME280;10076;52.008;4.708;2022-09-25T15:10:26;101431.94;;;23.55;99.72
19831;BME280;10076;52.008;4.708;2022-09-25T15:13:18;101432.97;;;22.99;100.00
19831;BME280;10076;52.008;4.708;2022-09-25T15:15:47;101425.34;;;22.57;100.00
19831;BME280;10076;52.008;4.708;2022-09-25T15:18:38;101428.88;;;22.33;100.00